地図

経路データ

SID SEASON NUMBER BASIN SUBBASIN NAME ISO_TIME NATURE LAT LON WMO_WIND WMO_PRES WMO_AGENCY TRACK_TYPE DIST2LAND LANDFALL IFLAG USA_AGENCY USA_ATCF_ID USA_LAT USA_LON USA_RECORD USA_STATUS USA_WIND USA_PRES USA_SSHS USA_R34_NE USA_R34_SE USA_R34_SW USA_R34_NW USA_R50_NE USA_R50_SE USA_R50_SW USA_R50_NW USA_R64_NE USA_R64_SE USA_R64_SW USA_R64_NW USA_POCI USA_ROCI USA_RMW USA_EYE TOKYO_LAT TOKYO_LON TOKYO_GRADE TOKYO_WIND TOKYO_PRES TOKYO_R50_DIR TOKYO_R50_LONG TOKYO_R50_SHORT TOKYO_R30_DIR TOKYO_R30_LONG TOKYO_R30_SHORT TOKYO_LAND CMA_LAT CMA_LON CMA_CAT CMA_WIND CMA_PRES HKO_LAT HKO_LON HKO_CAT HKO_WIND HKO_PRES NEWDELHI_LAT NEWDELHI_LON NEWDELHI_GRADE NEWDELHI_WIND NEWDELHI_PRES NEWDELHI_CI NEWDELHI_DP NEWDELHI_POCI REUNION_LAT REUNION_LON REUNION_TYPE REUNION_WIND REUNION_PRES REUNION_TNUM REUNION_CI REUNION_RMW REUNION_R34_NE REUNION_R34_SE REUNION_R34_SW REUNION_R34_NW REUNION_R50_NE REUNION_R50_SE REUNION_R50_SW REUNION_R50_NW REUNION_R64_NE REUNION_R64_SE REUNION_R64_SW REUNION_R64_NW BOM_LAT BOM_LON BOM_TYPE BOM_WIND BOM_PRES BOM_TNUM BOM_CI BOM_RMW BOM_R34_NE BOM_R34_SE BOM_R34_SW BOM_R34_NW BOM_R50_NE BOM_R50_SE BOM_R50_SW BOM_R50_NW BOM_R64_NE BOM_R64_SE BOM_R64_SW BOM_R64_NW BOM_ROCI BOM_POCI BOM_EYE BOM_POS_METHOD BOM_PRES_METHOD NADI_LAT NADI_LON NADI_CAT NADI_WIND NADI_PRES WELLINGTON_LAT WELLINGTON_LON WELLINGTON_WIND WELLINGTON_PRES DS824_LAT DS824_LON DS824_STAGE DS824_WIND DS824_PRES TD9636_LAT TD9636_LON TD9636_STAGE TD9636_WIND TD9636_PRES TD9635_LAT TD9635_LON TD9635_WIND TD9635_PRES TD9635_ROCI NEUMANN_LAT NEUMANN_LON NEUMANN_CLASS NEUMANN_WIND NEUMANN_PRES MLC_LAT MLC_LON MLC_CLASS MLC_WIND MLC_PRES USA_GUST BOM_GUST BOM_GUST_PER REUNION_GUST REUNION_GUST_PER USA_SEAHGT USA_SEARAD_NE USA_SEARAD_SE USA_SEARAD_SW USA_SEARAD_NW STORM_SPEED STORM_DIR
1916249N24285 1916 46 NA NA NOT_NAMED 1916-09-04 12:00:00 TS 24.2000 -75.5000 35 hurdat_atl main 225 180 O_____________ hurdat_atl AL091916 24.2000 -75.5000 TS 35 0 20 332
1916249N24285 1916 46 NA NA NOT_NAMED 1916-09-04 15:00:00 TS 25.0579 -76.0037 main 184 174 P_____________ AL091916 25.0579 -76.0037 TS 35 0 19 332
1916249N24285 1916 46 NA NA NOT_NAMED 1916-09-04 18:00:00 TS 25.9000 -76.5000 35 hurdat_atl main 174 172 O_____________ hurdat_atl AL091916 25.9000 -76.5000 TS 35 0 19 332
1916249N24285 1916 46 NA NA NOT_NAMED 1916-09-04 21:00:00 TS 26.7149 -76.9730 main 204 204 P_____________ AL091916 26.7149 -76.9730 TS 37 0 18 333
1916249N24285 1916 46 NA NA NOT_NAMED 1916-09-05 00:00:00 TS 27.5000 -77.4000 40 hurdat_atl main 268 261 O_____________ hurdat_atl AL091916 27.5000 -77.4000 TS 40 0 17 335
1916249N24285 1916 46 NA NA NOT_NAMED 1916-09-05 03:00:00 TS 28.2574 -77.7879 main 264 238 P_____________ AL091916 28.2574 -77.7879 TS 40 0 16 338
1916249N24285 1916 46 NA NA NOT_NAMED 1916-09-05 06:00:00 TS 29.0000 -78.1000 40 hurdat_atl main 240 236 O_____________ hurdat_atl AL091916 29.0000 -78.1000 TS 40 0 16 342
1916249N24285 1916 46 NA NA NOT_NAMED 1916-09-05 09:00:00 TS 29.7724 -78.3452 main 258 250 P_____________ AL091916 29.7724 -78.3452 TS 42 0 15 347
1916249N24285 1916 46 NA NA NOT_NAMED 1916-09-05 12:00:00 TS 30.5000 -78.5000 45 hurdat_atl main 273 213 O_____________ hurdat_atl AL091916 30.5000 -78.5000 TS 45 0 14 351
1916249N24285 1916 46 NA NA NOT_NAMED 1916-09-05 15:00:00 TS 31.1299 -78.5878 main 213 163 P_____________ AL091916 31.1299 -78.5878 TS 45 0 12 356
1916249N24285 1916 46 NA NA NOT_NAMED 1916-09-05 18:00:00 TS 31.7000 -78.6000 45 hurdat_atl main 163 116 O_____________ hurdat_atl AL091916 31.7000 -78.6000 TS 45 0 11 0
1916249N24285 1916 46 NA NA NOT_NAMED 1916-09-05 21:00:00 TS 32.2575 -78.5726 main 108 78 P_____________ AL091916 32.2575 -78.5726 TS 45 0 11 5
1916249N24285 1916 46 NA NA NOT_NAMED 1916-09-06 00:00:00 TS 32.8000 -78.5000 45 hurdat_atl main 78 64 O_____________ hurdat_atl AL091916 32.8000 -78.5000 TS 45 0 11 7
1916249N24285 1916 46 NA NA NOT_NAMED 1916-09-06 03:00:00 TS 33.3500 -78.4075 main 55 0 P_____________ AL091916 33.3500 -78.4075 TS 45 0 11 9
1916249N24285 1916 46 NA NA NOT_NAMED 1916-09-06 06:00:00 TS 33.9000 -78.3000 45 hurdat_atl main 0 0 O_____________ hurdat_atl AL091916 33.9000 -78.3000 L TS 45 0 11 8
1916249N24285 1916 46 NA NA NOT_NAMED 1916-09-06 09:00:00 TS 34.4649 -78.2147 main 0 0 P_____________ AL091916 34.4649 -78.2147 TS 40 0 11 8
1916249N24285 1916 46 NA NA NOT_NAMED 1916-09-06 12:00:00 TS 35.0000 -78.1000 35 hurdat_atl main 0 0 O_____________ hurdat_atl AL091916 35.0000 -78.1000 TS 35 0 11 13
1916249N24285 1916 46 NA NA NOT_NAMED 1916-09-06 15:00:00 TS 35.4874 -77.9373 main 0 0 P_____________ AL091916 35.4874 -77.9373 TS 32 -1 10 20
1916249N24285 1916 46 NA NA NOT_NAMED 1916-09-06 18:00:00 TS 35.9000 -77.7000 30 hurdat_atl main 0 0 O_____________ hurdat_atl AL091916 35.9000 -77.7000 TD 30 -1 9 32
1916249N24285 1916 46 NA NA NOT_NAMED 1916-09-06 21:00:00 TS 36.2253 -77.3755 main 0 0 P_____________ AL091916 36.2253 -77.3755 TD 27 -1 8 43
1916249N24285 1916 46 NA NA NOT_NAMED 1916-09-07 00:00:00 TS 36.5000 -77.0000 25 hurdat_atl main 0 O_____________ hurdat_atl AL091916 36.5000 -77.0000 TD 25 -1 8 48

IBTrACS Databaseについて

本データベースは、米国NOAAが公開する1842年以降の世界の熱帯低気圧のベストトラックデータアーカイブInternational Best Track Archive for Climate Stewardship (IBTrACS)を、ウェブで閲覧しやすい形式に変換したものです。

最終更新日:2021-12-08